createdAt,value
2022-09-03T00:01:19.293Z,13.70
2022-09-03T00:03:51.621Z,13.70
2022-09-03T00:06:24.626Z,13.60
2022-09-03T00:09:00.058Z,13.60
2022-09-03T00:11:34.316Z,13.60
2022-09-03T00:14:07.098Z,13.50
2022-09-03T00:16:45.990Z,13.50
2022-09-03T00:19:19.043Z,13.50
2022-09-03T00:21:51.538Z,13.40
2022-09-03T00:24:24.293Z,13.40
2022-09-03T00:26:57.190Z,13.40
2022-09-03T00:29:30.428Z,13.40
2022-09-03T00:32:03.862Z,13.40
2022-09-03T00:34:36.479Z,13.30
2022-09-03T00:37:05.370Z,13.20
2022-09-03T00:39:34.748Z,13.20
2022-09-03T00:42:26.029Z,13.10
2022-09-03T00:45:04.274Z,13.10
2022-09-03T00:47:41.038Z,13.10
2022-09-03T00:50:16.000Z,13.10
2022-09-03T00:52:53.573Z,13.00
2022-09-03T00:55:32.642Z,13.00
2022-09-03T00:58:22.016Z,13.00
2022-09-03T01:00:52.837Z,13.00
2022-09-03T01:03:27.624Z,12.90
2022-09-03T01:06:10.028Z,12.90
2022-09-03T01:08:53.364Z,12.90
2022-09-03T01:11:28.320Z,12.80
2022-09-03T01:14:12.831Z,12.80
2022-09-03T01:16:50.320Z,12.80
2022-09-03T01:19:48.825Z,12.80
2022-09-03T01:22:38.531Z,12.80
2022-09-03T01:25:18.271Z,12.70
2022-09-03T01:27:52.778Z,12.70
2022-09-03T01:30:24.034Z,12.60
2022-09-03T01:33:00.614Z,12.60
2022-09-03T01:35:37.409Z,12.60
2022-09-03T01:38:19.170Z,12.50
2022-09-03T01:41:24.788Z,12.60
2022-09-03T01:44:03.512Z,12.60
2022-09-03T01:46:39.390Z,12.50
2022-09-03T01:49:15.814Z,12.50
2022-09-03T01:51:45.253Z,12.50
2022-09-03T01:54:34.862Z,12.40
2022-09-03T01:57:35.629Z,12.40
2022-09-03T02:00:09.411Z,12.40
2022-09-03T02:02:43.796Z,12.30
2022-09-03T02:05:14.837Z,12.30
2022-09-03T02:07:46.488Z,12.40
2022-09-03T02:10:17.202Z,12.40
2022-09-03T02:12:49.646Z,12.30
2022-09-03T02:15:21.042Z,12.30
2022-09-03T02:17:56.437Z,12.30
2022-09-03T02:20:28.550Z,12.30
2022-09-03T02:22:58.530Z,12.20
2022-09-03T02:25:33.495Z,12.20
2022-09-03T02:28:02.883Z,12.20
2022-09-03T02:30:31.216Z,12.20
2022-09-03T02:33:00.957Z,12.10
2022-09-03T02:35:29.429Z,12.10
2022-09-03T02:37:57.853Z,12.10
2022-09-03T02:40:26.006Z,12.00
2022-09-03T02:42:55.178Z,12.00
2022-09-03T02:45:28.924Z,11.90
2022-09-03T02:48:00.002Z,11.90
2022-09-03T02:50:29.630Z,11.90
2022-09-03T02:52:57.815Z,11.80
2022-09-03T02:55:26.077Z,11.80
2022-09-03T02:57:54.236Z,11.80
2022-09-03T03:00:22.582Z,11.90
2022-09-03T03:02:50.805Z,11.90
2022-09-03T03:05:25.869Z,11.90
2022-09-03T03:07:58.650Z,11.90
2022-09-03T03:10:26.968Z,11.90
2022-09-03T03:12:55.290Z,11.90
2022-09-03T03:15:23.523Z,11.80
2022-09-03T03:17:51.749Z,11.80
2022-09-03T03:20:19.945Z,11.80
2022-09-03T03:22:48.311Z,11.80
2022-09-03T03:25:18.136Z,11.70
2022-09-03T03:27:47.175Z,11.70
2022-09-03T03:30:15.709Z,11.70
2022-09-03T03:32:43.874Z,11.70
2022-09-03T03:35:12.237Z,11.60
2022-09-03T03:37:40.414Z,11.60
2022-09-03T03:40:09.720Z,11.60
2022-09-03T03:42:39.632Z,11.60
2022-09-03T03:45:10.171Z,11.60
2022-09-03T03:47:38.817Z,11.60
2022-09-03T03:50:07.950Z,11.50
2022-09-03T03:52:36.240Z,11.60
2022-09-03T03:55:04.748Z,11.50
2022-09-03T03:57:33.118Z,11.50
2022-09-03T04:00:03.126Z,11.50
2022-09-03T04:02:42.722Z,11.50
2022-09-03T04:05:11.546Z,11.60
2022-09-03T04:07:39.830Z,11.60
2022-09-03T04:10:09.587Z,11.70
2022-09-03T04:12:37.921Z,11.70
2022-09-03T04:15:08.192Z,11.70
2022-09-03T04:17:36.401Z,11.60
2022-09-03T04:20:05.513Z,11.60
2022-09-03T04:22:33.900Z,11.60
2022-09-03T04:25:02.362Z,11.60
2022-09-03T04:27:31.374Z,11.50
2022-09-03T04:29:59.481Z,11.50
2022-09-03T04:32:46.921Z,11.50
2022-09-03T04:35:16.104Z,11.50
2022-09-03T04:37:44.338Z,11.50
2022-09-03T04:40:12.844Z,11.60
2022-09-03T04:42:43.102Z,11.60
2022-09-03T04:45:15.825Z,11.60
2022-09-03T04:47:46.846Z,11.70
2022-09-03T04:50:15.169Z,11.80
2022-09-03T04:52:43.543Z,11.80
2022-09-03T04:55:12.101Z,11.90
2022-09-03T04:57:42.982Z,12.00
2022-09-03T05:00:12.578Z,12.00
2022-09-03T05:02:41.097Z,12.10
2022-09-03T05:05:10.974Z,12.20
2022-09-03T05:07:40.469Z,12.30
2022-09-03T05:10:12.988Z,12.40
2022-09-03T05:12:41.850Z,12.50
2022-09-03T05:15:10.451Z,12.60
2022-09-03T05:17:39.216Z,12.70
2022-09-03T05:20:08.631Z,12.80
2022-09-03T05:22:38.250Z,12.90
2022-09-03T05:25:07.611Z,13.00
2022-09-03T05:27:35.791Z,13.10
2022-09-03T05:30:04.037Z,13.20
2022-09-03T05:32:32.944Z,13.20
2022-09-03T05:35:01.130Z,13.30
2022-09-03T05:37:29.244Z,13.30
2022-09-03T05:39:58.911Z,13.40
2022-09-03T05:42:28.414Z,13.50
2022-09-03T05:44:57.496Z,13.60
2022-09-03T05:47:25.706Z,13.70
2022-09-03T05:49:53.918Z,13.90
2022-09-03T05:52:23.529Z,14.00
2022-09-03T05:54:51.728Z,14.20
2022-09-03T05:57:21.412Z,14.40
2022-09-03T05:59:49.859Z,14.50
2022-09-03T06:02:20.227Z,14.70
2022-09-03T06:04:49.225Z,14.90
2022-09-03T06:07:17.427Z,15.10
2022-09-03T06:09:45.619Z,15.20
2022-09-03T06:12:13.836Z,15.40
2022-09-03T06:14:43.493Z,15.50
2022-09-03T06:17:12.956Z,15.50
2022-09-03T06:19:41.108Z,15.60
2022-09-03T06:22:09.254Z,15.60
2022-09-03T06:24:37.524Z,15.60
2022-09-03T06:27:05.913Z,15.70
2022-09-03T06:29:35.560Z,15.80
2022-09-03T06:32:05.463Z,16.00
2022-09-03T06:34:33.852Z,16.10
2022-09-03T06:37:02.013Z,16.20
2022-09-03T06:39:30.715Z,16.40
2022-09-03T06:41:58.940Z,16.50
2022-09-03T06:44:35.199Z,16.70
2022-09-03T06:47:03.389Z,16.90
2022-09-03T06:49:32.952Z,17.00
2022-09-03T06:52:01.105Z,17.20
2022-09-03T06:54:29.279Z,17.40
2022-09-03T06:56:58.606Z,17.50
2022-09-03T06:59:28.345Z,17.60
2022-09-03T07:01:58.181Z,17.70
2022-09-03T07:04:27.123Z,17.90
2022-09-03T07:06:58.956Z,18.10
2022-09-03T07:09:27.261Z,18.20
2022-09-03T07:11:55.562Z,18.40
2022-09-03T07:14:24.768Z,18.60
2022-09-03T07:16:55.354Z,18.80
2022-09-03T07:19:23.600Z,19.00
2022-09-03T07:21:51.798Z,19.30
2022-09-03T07:24:22.272Z,19.40
2022-09-03T07:26:51.135Z,19.70
2022-09-03T07:29:21.708Z,19.90
2022-09-03T07:31:52.949Z,20.10
2022-09-03T07:34:24.191Z,20.10
2022-09-03T07:36:53.936Z,20.20
2022-09-03T07:39:23.604Z,20.30
2022-09-03T07:41:51.848Z,20.30
2022-09-03T07:44:20.812Z,20.30
2022-09-03T07:46:51.140Z,20.40
2022-09-03T07:49:21.088Z,20.50
2022-09-03T07:51:50.851Z,20.60
2022-09-03T07:54:22.106Z,20.80
2022-09-03T07:56:51.734Z,21.00
2022-09-03T07:59:21.321Z,21.10
2022-09-03T08:01:51.028Z,21.10
2022-09-03T08:04:19.175Z,21.10
2022-09-03T08:06:48.253Z,21.00
2022-09-03T08:09:16.661Z,21.00
2022-09-03T08:11:45.360Z,21.00
2022-09-03T08:14:16.505Z,21.10
2022-09-03T08:16:47.300Z,21.10
2022-09-03T08:19:16.084Z,21.00
2022-09-03T08:21:44.476Z,21.00
2022-09-03T08:24:13.531Z,21.00
2022-09-03T08:26:47.583Z,21.00
2022-09-03T08:29:20.801Z,21.00
2022-09-03T08:31:49.098Z,21.00
2022-09-03T08:34:17.905Z,21.00
2022-09-03T08:36:47.510Z,21.00
2022-09-03T08:39:16.724Z,21.00
2022-09-03T08:42:08.342Z,21.10
2022-09-03T08:44:46.966Z,21.10
2022-09-03T08:47:19.990Z,21.30
2022-09-03T08:49:54.440Z,21.40
2022-09-03T08:52:34.294Z,21.70
2022-09-03T08:55:26.122Z,21.90
2022-09-03T08:58:01.648Z,22.20
2022-09-03T09:00:43.158Z,22.50
2022-09-03T09:03:42.338Z,22.80
2022-09-03T09:06:21.265Z,23.00
2022-09-03T09:09:06.505Z,23.10
2022-09-03T09:11:47.657Z,23.30
2022-09-03T09:14:21.263Z,23.60
2022-09-03T09:17:00.872Z,23.90
2022-09-03T09:19:43.329Z,23.90
2022-09-03T09:22:15.913Z,23.90
2022-09-03T09:24:47.795Z,23.60
2022-09-03T09:27:17.820Z,23.40
2022-09-03T09:29:50.966Z,23.20
2022-09-03T09:32:22.254Z,23.10
2022-09-03T09:34:52.532Z,23.00
2022-09-03T09:37:22.052Z,23.10
2022-09-03T09:39:58.723Z,23.10
2022-09-03T09:42:29.950Z,23.10
2022-09-03T09:44:58.471Z,23.10
2022-09-03T09:47:31.636Z,23.20
2022-09-03T09:50:02.393Z,23.20
2022-09-03T09:52:32.120Z,23.10
2022-09-03T09:55:09.397Z,23.00
2022-09-03T09:57:38.029Z,22.90
2022-09-03T10:00:10.724Z,22.80
2022-09-03T10:02:50.850Z,22.80
2022-09-03T10:05:24.696Z,22.80
2022-09-03T10:07:58.254Z,22.90
2022-09-03T10:10:27.736Z,23.10
2022-09-03T10:13:01.737Z,23.40
2022-09-03T10:15:37.547Z,23.50
2022-09-03T10:18:13.629Z,23.70
2022-09-03T10:20:49.825Z,23.80
2022-09-03T10:23:21.936Z,23.90
2022-09-03T10:26:04.544Z,24.00
2022-09-03T10:28:39.352Z,24.00
2022-09-03T10:31:36.733Z,24.00
2022-09-03T10:34:14.800Z,24.10
2022-09-03T10:36:50.660Z,24.10
2022-09-03T10:39:24.747Z,24.40
2022-09-03T10:42:06.926Z,24.50
2022-09-03T10:44:55.081Z,24.70
2022-09-03T10:47:40.907Z,24.80
2022-09-03T10:50:16.642Z,25.00
2022-09-03T10:53:07.041Z,25.30
2022-09-03T10:55:48.117Z,25.50
2022-09-03T10:58:33.505Z,25.70
2022-09-03T11:01:07.080Z,26.00
2022-09-03T11:03:47.479Z,26.30
2022-09-03T11:06:22.578Z,26.60
2022-09-03T11:09:02.060Z,26.80
2022-09-03T11:11:36.943Z,27.00
2022-09-03T11:14:09.986Z,27.20
2022-09-03T11:16:43.201Z,27.20
2022-09-03T11:19:16.330Z,27.10
2022-09-03T11:21:48.960Z,27.10
2022-09-03T11:24:22.669Z,27.00
2022-09-03T11:26:57.253Z,27.10
2022-09-03T11:29:36.809Z,27.20
2022-09-03T11:32:10.946Z,27.30
2022-09-03T11:34:47.711Z,27.40
2022-09-03T11:37:24.305Z,27.40
2022-09-03T11:40:00.811Z,27.50
2022-09-03T11:42:33.898Z,27.30
2022-09-03T11:45:23.126Z,27.20
2022-09-03T11:47:51.993Z,27.30
2022-09-03T11:50:24.673Z,27.60
2022-09-03T11:52:56.890Z,27.70
2022-09-03T11:55:38.287Z,27.90
2022-09-03T11:58:22.094Z,28.00
2022-09-03T12:00:55.062Z,28.20
2022-09-03T12:03:28.986Z,28.30
2022-09-03T12:06:41.561Z,28.20
2022-09-03T12:09:42.132Z,28.20
2022-09-03T12:12:27.959Z,28.40
2022-09-03T12:15:06.077Z,28.50
2022-09-03T12:17:41.064Z,28.60
2022-09-03T12:20:15.178Z,28.40
2022-09-03T12:22:44.080Z,28.40
2022-09-03T12:25:15.941Z,28.40
2022-09-03T12:27:46.472Z,28.50
2022-09-03T12:30:18.338Z,28.60
2022-09-03T12:32:46.476Z,28.60
2022-09-03T12:35:58.441Z,28.60
2022-09-03T12:38:06.896Z,28.40
2022-09-03T12:43:41.855Z,28.10
2022-09-03T12:46:17.012Z,27.90
2022-09-03T12:51:49.172Z,27.90
2022-09-03T12:54:19.985Z,28.00
2022-09-03T12:56:56.015Z,28.10
2022-09-03T12:59:25.305Z,28.00
2022-09-03T13:01:56.363Z,28.00
2022-09-03T13:04:29.000Z,27.80
2022-09-03T13:07:03.613Z,27.60
2022-09-03T13:09:35.450Z,27.40
2022-09-03T13:12:05.874Z,27.30
2022-09-03T13:14:44.832Z,27.20
2022-09-03T13:17:32.974Z,27.30
2022-09-03T13:20:17.069Z,27.40
2022-09-03T13:23:02.188Z,27.40
2022-09-03T13:25:39.622Z,27.50
2022-09-03T13:28:21.302Z,27.40
2022-09-03T13:30:56.681Z,27.40
2022-09-03T13:33:33.118Z,27.30
2022-09-03T13:36:04.494Z,27.10
2022-09-03T13:38:38.349Z,26.90
2022-09-03T13:41:15.038Z,26.80
2022-09-03T13:43:48.078Z,26.80
2022-09-03T13:46:23.258Z,26.70
2022-09-03T13:49:15.432Z,26.60
2022-09-03T13:51:51.664Z,26.50
2022-09-03T13:54:47.691Z,26.40
2022-09-03T13:57:25.812Z,26.30
2022-09-03T14:00:00.085Z,26.30
2022-09-03T14:02:34.406Z,26.30
2022-09-03T14:05:11.266Z,26.20
2022-09-03T14:07:55.346Z,26.20
2022-09-03T14:10:31.513Z,26.40
2022-09-03T14:13:11.925Z,26.50
2022-09-03T14:15:49.481Z,26.60
2022-09-03T14:18:33.720Z,26.80
2022-09-03T14:21:06.520Z,27.10
2022-09-03T14:23:42.201Z,27.10
2022-09-03T14:26:27.007Z,27.20
2022-09-03T14:29:07.897Z,27.00
2022-09-03T14:31:54.868Z,26.90
2022-09-03T14:34:33.453Z,26.80
2022-09-03T14:37:10.336Z,26.60
2022-09-03T14:39:51.029Z,26.50
2022-09-03T14:42:42.705Z,26.50
2022-09-03T14:45:39.054Z,26.50
2022-09-03T14:48:28.871Z,26.50
2022-09-03T14:51:17.732Z,26.50
2022-09-03T14:54:33.105Z,26.50
2022-09-03T14:57:14.477Z,26.50
2022-09-03T15:00:03.764Z,26.50
2022-09-03T15:02:53.505Z,26.40
2022-09-03T15:05:52.955Z,26.40
2022-09-03T15:08:41.279Z,26.30
2022-09-03T15:11:18.376Z,26.40
2022-09-03T15:13:50.845Z,26.30
2022-09-03T15:16:32.646Z,26.20
2022-09-03T15:19:13.348Z,26.00
2022-09-03T15:22:01.381Z,25.80
2022-09-03T15:24:39.084Z,25.50
2022-09-03T15:27:20.712Z,25.30
2022-09-03T15:29:53.882Z,25.10
2022-09-03T15:32:44.797Z,25.00
2022-09-03T15:35:28.078Z,24.70
2022-09-03T15:38:01.298Z,24.50
2022-09-03T15:40:32.773Z,24.30
2022-09-03T15:43:08.318Z,24.10
2022-09-03T15:45:41.672Z,23.90
2022-09-03T15:48:24.469Z,23.60
2022-09-03T15:51:07.980Z,23.50
2022-09-03T15:53:43.207Z,23.30
2022-09-03T15:56:22.117Z,23.20
2022-09-03T15:58:58.217Z,23.10
2022-09-03T16:01:46.172Z,22.90
2022-09-03T16:04:28.928Z,22.80
2022-09-03T16:07:02.813Z,22.70
2022-09-03T16:10:20.371Z,22.60
2022-09-03T16:12:46.099Z,22.50
2022-09-03T16:15:18.269Z,22.40
2022-09-03T16:17:56.175Z,22.40
2022-09-03T16:20:28.634Z,22.30
2022-09-03T16:23:02.848Z,22.30
2022-09-03T16:25:38.610Z,22.20
2022-09-03T16:28:15.001Z,22.10
2022-09-03T16:30:59.009Z,22.00
2022-09-03T16:33:38.836Z,21.80
2022-09-03T16:36:22.032Z,21.60
2022-09-03T16:38:58.978Z,21.30
2022-09-03T16:41:35.849Z,20.90
2022-09-03T16:44:10.653Z,20.40
2022-09-03T16:46:48.535Z,19.90
2022-09-03T16:49:38.279Z,19.40
2022-09-03T16:52:14.870Z,18.90
2022-09-03T16:54:57.531Z,18.50
2022-09-03T16:57:47.153Z,18.10
2022-09-03T17:00:16.506Z,17.90
2022-09-03T17:03:13.401Z,17.70
2022-09-03T17:06:02.894Z,17.60
2022-09-03T17:08:39.374Z,17.50
2022-09-03T17:11:20.215Z,17.50
2022-09-03T17:14:03.819Z,17.50
2022-09-03T17:16:44.491Z,17.40
2022-09-03T17:19:20.342Z,17.30
2022-09-03T17:21:56.650Z,17.30
2022-09-03T17:24:36.069Z,17.20
2022-09-03T17:27:34.490Z,17.10
2022-09-03T17:30:10.502Z,17.00
2022-09-03T17:33:03.813Z,16.90
2022-09-03T17:35:38.834Z,16.90
2022-09-03T17:38:21.130Z,16.70
2022-09-03T17:41:03.521Z,16.70
2022-09-03T17:43:41.462Z,16.60
2022-09-03T17:46:21.261Z,16.50
2022-09-03T17:48:52.433Z,16.50
2022-09-03T17:51:35.135Z,16.50
2022-09-03T17:54:09.123Z,16.50
2022-09-03T17:56:47.757Z,16.50
2022-09-03T17:59:22.548Z,16.40
2022-09-03T18:01:59.686Z,16.30
2022-09-03T18:04:38.506Z,16.30
2022-09-03T18:07:15.000Z,16.20
2022-09-03T18:09:51.919Z,16.20
2022-09-03T18:12:30.637Z,16.20
2022-09-03T18:15:08.677Z,16.20
2022-09-03T18:17:45.555Z,16.30
2022-09-03T18:20:33.069Z,16.30
2022-09-03T18:23:24.166Z,16.30
2022-09-03T18:26:14.844Z,16.20
2022-09-03T18:29:06.393Z,16.20
2022-09-03T18:31:52.666Z,16.20
2022-09-03T18:34:47.500Z,16.20
2022-09-03T18:37:37.381Z,16.10
2022-09-03T18:40:26.218Z,16.10
2022-09-03T18:43:21.153Z,16.10
2022-09-03T18:47:40.952Z,16.10
2022-09-03T18:49:27.684Z,16.10
2022-09-03T18:52:20.462Z,16.10
2022-09-03T18:55:20.187Z,16.10
2022-09-03T18:58:20.380Z,16.10
2022-09-03T19:01:13.511Z,16.10
2022-09-03T19:04:15.185Z,16.10
2022-09-03T19:07:10.513Z,16.00
2022-09-03T19:10:06.776Z,16.00
2022-09-03T19:13:06.357Z,16.00
2022-09-03T19:15:57.024Z,16.00
2022-09-03T19:19:03.580Z,16.00
2022-09-03T19:21:59.209Z,16.00
2022-09-03T19:24:47.958Z,16.00
2022-09-03T19:28:00.279Z,16.00
2022-09-03T19:30:52.169Z,16.00
2022-09-03T19:33:45.403Z,16.00
2022-09-03T19:36:38.479Z,15.90
2022-09-03T19:39:39.611Z,15.90
2022-09-03T19:42:35.213Z,15.80
2022-09-03T19:45:34.208Z,15.90
2022-09-03T19:48:31.759Z,15.90
2022-09-03T19:51:26.943Z,15.90
2022-09-03T19:54:14.409Z,15.80
2022-09-03T19:57:00.732Z,15.80
2022-09-03T19:59:53.775Z,15.80
2022-09-03T20:02:42.485Z,15.80
2022-09-03T20:05:34.545Z,15.80
2022-09-03T20:08:20.089Z,15.70
2022-09-03T20:10:53.258Z,15.70
2022-09-03T20:13:22.021Z,15.70
2022-09-03T20:16:00.225Z,15.70
2022-09-03T20:18:43.806Z,15.70
2022-09-03T20:21:19.079Z,15.70
2022-09-03T20:23:59.345Z,15.80
2022-09-03T20:26:39.041Z,15.80
2022-09-03T20:29:32.937Z,15.80
2022-09-03T20:32:07.964Z,15.80
2022-09-03T20:34:47.775Z,15.80
2022-09-03T20:37:27.854Z,15.90
2022-09-03T20:40:17.249Z,15.90
2022-09-03T20:43:03.959Z,15.80
2022-09-03T20:45:45.094Z,15.90
2022-09-03T20:48:21.981Z,15.80
2022-09-03T20:50:59.255Z,15.80
2022-09-03T20:53:57.300Z,15.80
2022-09-03T20:56:31.373Z,15.80
2022-09-03T20:59:09.482Z,15.80
2022-09-03T21:01:46.509Z,15.70
2022-09-03T21:04:31.114Z,15.80
2022-09-03T21:07:12.951Z,15.70
2022-09-03T21:09:53.149Z,15.70
2022-09-03T21:12:30.746Z,15.60
2022-09-03T21:15:07.613Z,15.60
2022-09-03T21:17:47.130Z,15.60
2022-09-03T21:20:23.646Z,15.60
2022-09-03T21:23:08.190Z,15.60
2022-09-03T21:25:46.210Z,15.50
2022-09-03T21:28:18.064Z,15.50
2022-09-03T21:30:49.975Z,15.50
2022-09-03T21:33:23.752Z,15.40
2022-09-03T21:36:00.072Z,15.40
2022-09-03T21:38:34.905Z,15.40
2022-09-03T21:41:13.546Z,15.30
2022-09-03T21:43:49.679Z,15.20
2022-09-03T21:46:22.866Z,15.20
2022-09-03T21:48:55.983Z,15.20
2022-09-03T21:51:31.631Z,15.20
2022-09-03T21:54:08.067Z,15.10
2022-09-03T21:57:08.863Z,15.10
2022-09-03T22:00:06.118Z,15.10
2022-09-03T22:02:41.996Z,15.10
2022-09-03T22:05:10.332Z,15.10
2022-09-03T22:08:05.198Z,15.00
2022-09-03T22:10:45.597Z,15.00
2022-09-03T22:13:21.586Z,15.00
2022-09-03T22:15:52.032Z,15.00
2022-09-03T22:18:28.729Z,15.00
2022-09-03T22:21:04.274Z,15.00
2022-09-03T22:23:43.572Z,15.00
2022-09-03T22:26:32.261Z,14.90
2022-09-03T22:29:06.792Z,14.90
2022-09-03T22:31:52.580Z,14.90
2022-09-03T22:34:54.308Z,14.80
2022-09-03T22:37:33.741Z,14.80
2022-09-03T22:40:14.911Z,14.80
2022-09-03T22:43:10.223Z,14.70
2022-09-03T22:46:03.538Z,14.70
2022-09-03T22:48:48.080Z,14.70
2022-09-03T22:51:21.626Z,14.70
2022-09-03T22:54:06.596Z,14.60
2022-09-03T22:56:38.462Z,14.60
2022-09-03T22:59:13.677Z,14.50
2022-09-03T23:01:46.405Z,14.60
2022-09-03T23:04:22.730Z,14.50
2022-09-03T23:07:01.298Z,14.60
2022-09-03T23:09:35.730Z,14.60
2022-09-03T23:12:08.886Z,14.60
2022-09-03T23:14:48.724Z,14.60
2022-09-03T23:22:35.395Z,14.50
2022-09-03T23:25:11.671Z,14.50
2022-09-03T23:27:45.543Z,14.50
2022-09-03T23:30:15.187Z,14.40
2022-09-03T23:32:44.652Z,14.40
2022-09-03T23:35:17.849Z,14.40
2022-09-03T23:37:58.456Z,14.40
2022-09-03T23:40:37.612Z,14.30
2022-09-03T23:43:33.297Z,14.30
2022-09-03T23:46:10.143Z,14.30
2022-09-03T23:48:47.115Z,14.20
2022-09-03T23:51:28.849Z,14.20
2022-09-03T23:54:11.028Z,14.20
2022-09-03T23:56:52.736Z,14.10
2022-09-03T23:59:30.513Z,14.10
